Time;durP1;ratioP1;P1;durP2;ratioP2;P2;SDS_P1;SDS_P2;PMS_P1;PMS_P2;Temp;Humidity;BMP_temperature;BMP_pressure;BME280_temperature;BME280_humidity;BME280_pressure;Samples;Min_cycle;Max_cycle;Signal;HPM_P1;HPM_P2
2020/12/21 00:00:26;;;;;;;46.27;10.73;;;7.70;1.00;;;;;;5100525;28;20409;-75
2020/12/21 00:02:52;;;;;;;29.73;9.27;;;10.30;1.00;;;;;;5073838;28;20163;-75
2020/12/21 00:05:17;;;;;;;37.70;10.00;;;7.80;1.00;;;;;;5092096;28;20428;-75
2020/12/21 00:08:02;;;;;;;24.10;9.80;;;7.70;1.00;;;;;;5093758;28;20171;-75
2020/12/21 00:10:41;;;;;;;33.67;9.30;;;7.80;1.00;;;;;;5091982;28;20246;-74
2020/12/21 00:13:06;;;;;;;82.80;9.80;;;7.80;1.00;;;;;;5107616;28;20915;-74
2020/12/21 00:15:59;;;;;;;103.53;10.30;;;7.80;1.00;;;;;;5075777;28;20457;-76
2020/12/21 00:18:46;;;;;;;79.87;10.20;;;7.80;1.00;;;;;;5073447;28;20175;-76
2020/12/21 00:21:17;;;;;;;61.70;10.73;;;7.70;1.00;;;;;;5074596;28;20413;-76
2020/12/21 00:23:52;;;;;;;77.73;10.30;;;7.70;1.00;;;;;;5102796;28;20434;-76
2020/12/21 00:26:44;;;;;;;99.47;9.70;;;7.80;1.00;;;;;;5114387;28;20946;-77
2020/12/21 00:32:40;;;;;;;63.50;9.07;;;7.90;1.00;;;;;;5074542;28;20460;-76
2020/12/21 00:35:06;;;;;;;48.07;9.33;;;7.90;1.00;;;;;;5076347;28;21013;-76
2020/12/21 00:37:32;;;;;;;60.90;9.80;;;7.90;1.00;;;;;;5090923;28;20498;-76
2020/12/21 00:39:57;;;;;;;35.50;9.10;;;7.90;1.00;;;;;;5118434;28;20287;-76
2020/12/21 00:42:29;;;;;;;38.37;10.30;;;7.90;1.00;;;;;;5107885;28;20202;-76
2020/12/21 00:45:05;;;;;;;29.83;8.73;;;7.90;1.00;;;;;;5077493;28;20217;-76
2020/12/21 00:47:44;;;;;;;40.67;8.67;;;7.90;1.00;;;;;;5077816;28;20420;-75
2020/12/21 00:50:23;;;;;;;73.63;10.20;;;7.90;1.00;;;;;;5088993;28;20450;-75
2020/12/21 00:52:53;;;;;;;62.30;10.57;;;7.90;1.00;;;;;;5078074;28;20831;-75
2020/12/21 00:55:18;;;;;;;28.00;8.57;;;7.90;1.00;;;;;;5077185;28;20440;-75
2020/12/21 00:57:44;;;;;;;27.37;9.33;;;7.90;1.00;;;;;;5090916;28;20408;-75
2020/12/21 01:00:10;;;;;;;106.30;10.33;;;8.00;1.00;;;;;;5097236;28;20166;-75
2020/12/21 01:02:36;;;;;;;36.23;9.27;;;;;;;;;;5097635;28;20404;-76
2020/12/21 01:05:05;;;;;;;47.03;9.40;;;7.90;1.00;;;;;;5096885;28;20224;-76
2020/12/21 01:07:35;;;;;;;40.07;10.30;;;7.90;1.00;;;;;;5086511;28;20417;-76
2020/12/21 01:10:22;;;;;;;37.37;9.10;;;8.00;1.00;;;;;;5076987;28;20947;-76
2020/12/21 01:12:48;;;;;;;34.07;10.70;;;8.00;1.00;;;;;;5093221;28;20408;-76
2020/12/21 01:15:23;;;;;;;46.10;8.27;;;8.00;1.00;;;;;;5097074;28;20446;-76
2020/12/21 01:17:53;;;;;;;42.83;9.73;;;8.00;1.00;;;;;;5097250;28;20158;-74
2020/12/21 01:20:35;;;;;;;35.80;9.63;;;8.00;1.00;;;;;;5097092;28;20392;-75
2020/12/21 01:23:00;;;;;;;35.07;9.03;;;8.00;1.00;;;;;;5100903;28;20429;-75
2020/12/21 01:25:26;;;;;;;48.73;9.57;;;8.00;1.00;;;;;;5096502;28;20876;-75
2020/12/21 01:27:52;;;;;;;57.40;9.70;;;8.00;1.00;;;;;;5076464;28;20250;-75
2020/12/21 01:30:23;;;;;;;26.07;8.00;;;8.00;1.00;;;;;;5094996;28;20232;-75
2020/12/21 01:32:48;;;;;;;29.93;9.30;;;8.00;1.00;;;;;;5095431;28;20495;-75
2020/12/21 01:35:14;;;;;;;19.57;7.80;;;8.10;1.00;;;;;;5075936;28;20540;-75
2020/12/21 01:37:41;;;;;;;23.17;9.00;;;8.10;1.00;;;;;;5084249;28;20877;-75
2020/12/21 01:40:07;;;;;;;20.93;8.40;;;8.10;1.00;;;;;;5094584;28;20178;-74
2020/12/21 01:42:34;;;;;;;29.87;8.23;;;8.10;1.00;;;;;;5111825;28;20810;-75
2020/12/21 01:45:11;;;;;;;25.73;9.17;;;8.10;1.00;;;;;;5116509;28;20922;-75
2020/12/21 01:47:37;;;;;;;43.63;9.00;;;8.10;1.00;;;;;;5117388;28;20858;-75
2020/12/21 01:50:06;;;;;;;66.90;7.67;;;8.10;1.00;;;;;;5082049;28;20408;-75
2020/12/21 01:52:32;;;;;;;42.77;8.33;;;8.10;1.00;;;;;;5096434;28;20437;-75
2020/12/21 01:54:58;;;;;;;28.67;7.77;;;9.80;1.00;;;;;;5096450;28;20441;-75
2020/12/21 01:57:24;;;;;;;46.67;8.87;;;8.10;1.00;;;;;;5096195;28;20409;-75
2020/12/21 01:59:50;;;;;;;42.17;9.87;;;8.10;1.00;;;;;;5093016;28;20423;-75
2020/12/21 02:02:15;;;;;;;48.47;9.03;;;8.20;1.00;;;;;;5076353;28;20249;-75
2020/12/21 02:04:41;;;;;;;68.50;9.23;;;8.20;1.00;;;;;;5076282;28;20165;-75
2020/12/21 02:07:08;;;;;;;25.83;8.13;;;8.20;1.00;;;;;;5075391;28;20169;-75
2020/12/21 02:09:34;;;;;;;43.43;7.90;;;11.00;1.00;;;;;;5075523;28;20466;-75
2020/12/21 02:12:05;;;;;;;30.23;7.70;;;8.20;1.00;;;;;;5098240;28;20411;-75
2020/12/21 02:14:52;;;;;;;34.10;8.90;;;8.20;1.00;;;;;;5086306;28;20502;-75
2020/12/21 02:17:18;;;;;;;27.43;8.63;;;;;;;;;;5075977;28;20870;-74
2020/12/21 02:19:47;;;;;;;31.23;8.97;;;8.20;1.00;;;;;;5075556;28;20414;-75
2020/12/21 02:22:13;;;;;;;38.20;8.80;;;;;;;;;;5087435;28;20484;-75
2020/12/21 02:24:41;;;;;;;19.03;7.83;;;8.20;1.00;;;;;;5115458;28;20400;-75
2020/12/21 02:27:11;;;;;;;44.20;9.27;;;8.20;1.00;;;;;;5116095;28;20900;-75
2020/12/21 02:29:36;;;;;;;51.77;9.17;;;8.20;1.00;;;;;;5116072;28;20918;-75
2020/12/21 02:32:02;;;;;;;60.70;8.83;;;8.20;1.00;;;;;;5106194;28;20496;-75
2020/12/21 02:34:29;;;;;;;53.67;9.30;;;9.80;1.00;;;;;;5095860;28;20594;-75
2020/12/21 02:36:55;;;;;;;34.90;9.40;;;8.20;1.00;;;;;;5088076;28;20207;-75
2020/12/21 02:39:35;;;;;;;29.70;8.30;;;8.20;1.00;;;;;;5094446;28;20404;-75
2020/12/21 02:42:04;;;;;;;43.80;8.13;;;8.10;1.00;;;;;;5101325;28;20399;-75
2020/12/21 02:44:41;;;;;;;34.50;8.67;;;8.20;1.00;;;;;;5093360;28;20437;-75
2020/12/21 02:47:06;;;;;;;48.27;9.13;;;8.20;1.00;;;;;;5091148;28;20408;-75
2020/12/21 02:49:35;;;;;;;21.87;9.00;;;8.20;1.00;;;;;;5074138;28;20389;-75
2020/12/21 02:52:17;;;;;;;37.80;8.40;;;8.20;1.00;;;;;;5080046;28;20166;-75
2020/12/21 02:55:10;;;;;;;64.93;9.07;;;8.20;1.00;;;;;;5073576;28;20413;-75
2020/12/21 02:57:36;;;;;;;39.10;8.60;;;8.20;1.00;;;;;;5073244;28;20410;-75
2020/12/21 03:00:09;;;;;;;25.07;8.70;;;8.20;1.00;;;;;;5075025;28;20482;-74
2020/12/21 03:05:57;;;;;;;29.83;7.27;;;8.20;1.00;;;;;;5078570;28;20400;-76
2020/12/21 03:08:41;;;;;;;27.73;8.47;;;8.20;1.00;;;;;;5082603;28;20412;-76
2020/12/21 03:11:17;;;;;;;66.80;8.50;;;8.20;1.00;;;;;;5094239;28;20166;-76
2020/12/21 03:13:59;;;;;;;25.73;7.73;;;8.20;1.00;;;;;;5089160;28;20812;-76
2020/12/21 03:16:24;;;;;;;19.10;7.73;;;8.20;1.00;;;;;;5073739;28;20799;-77
2020/12/21 03:18:59;;;;;;;21.10;8.50;;;8.30;1.00;;;;;;5073912;28;20627;-75
2020/12/21 03:21:29;;;;;;;39.27;8.57;;;8.30;1.00;;;;;;5073867;28;20220;-75
2020/12/21 03:24:34;;;;;;;25.10;8.23;;;8.20;1.00;;;;;;5083928;28;20436;-74
2020/12/21 03:27:00;;;;;;;29.87;8.30;;;8.30;1.00;;;;;;5093827;28;20395;-75
2020/12/21 03:29:58;;;;;;;34.67;7.47;;;8.20;1.00;;;;;;5093656;28;20381;-75
2020/12/21 03:32:41;;;;;;;40.67;8.50;;;8.20;1.00;;;;;;5093953;28;20178;-75
2020/12/21 03:35:07;;;;;;;22.90;7.33;;;8.20;1.00;;;;;;5069491;28;606518;-75
2020/12/21 03:37:47;;;;;;;38.13;8.57;;;8.30;1.00;;;;;;5101074;28;20392;-75
2020/12/21 03:40:12;;;;;;;59.27;9.77;;;8.30;1.00;;;;;;5082271;28;20454;-75
2020/12/21 03:42:39;;;;;;;26.17;8.90;;;8.20;1.00;;;;;;5103021;28;20443;-75
2020/12/21 03:45:17;;;;;;;28.83;8.37;;;8.30;1.00;;;;;;5094414;28;20665;-75
2020/12/21 03:47:42;;;;;;;40.63;8.37;;;8.20;1.00;;;;;;5094485;28;20405;-77
2020/12/21 03:53:30;;;;;;;18.27;8.67;;;8.20;1.00;;;;;;5086173;28;20239;-77
2020/12/21 03:56:05;;;;;;;27.17;7.30;;;8.20;1.00;;;;;;5074151;28;20445;-77
2020/12/21 03:59:04;;;;;;;31.83;9.63;;;8.20;1.00;;;;;;5073822;28;20484;-76
2020/12/21 04:01:58;;;;;;;39.33;9.57;;;8.30;1.00;;;;;;5081506;28;20415;-76
2020/12/21 04:04:24;;;;;;;76.77;8.27;;;8.30;1.00;;;;;;5094612;28;20380;-75
2020/12/21 04:06:59;;;;;;;30.00;8.77;;;8.30;1.00;;;;;;5093911;28;20395;-75
2020/12/21 04:09:29;;;;;;;19.07;8.17;;;8.30;1.00;;;;;;5080312;28;20431;-75
2020/12/21 04:11:59;;;;;;;34.27;8.83;;;8.30;1.00;;;;;;5083560;28;20412;-75
2020/12/21 04:14:35;;;;;;;30.67;8.90;;;8.30;1.00;;;;;;5079746;28;20891;-75
2020/12/21 04:17:22;;;;;;;36.70;9.10;;;8.30;1.00;;;;;;5083963;28;20454;-75
2020/12/21 04:19:53;;;;;;;36.10;8.30;;;8.30;1.00;;;;;;5093963;28;20419;-75
2020/12/21 04:22:19;;;;;;;44.40;11.00;;;;;;;;;;5094711;28;20419;-75
2020/12/21 04:24:47;;;;;;;33.93;10.30;;;8.30;1.00;;;;;;5114212;28;20842;-75
2020/12/21 04:27:12;;;;;;;42.03;10.17;;;8.30;1.00;;;;;;5109826;28;20890;-74
2020/12/21 04:29:47;;;;;;;33.37;9.90;;;8.30;1.00;;;;;;5087796;28;20412;-74
2020/12/21 04:32:29;;;;;;;26.07;10.10;;;8.30;1.00;;;;;;5073902;28;20203;-75
2020/12/21 04:34:59;;;;;;;29.50;9.50;;;8.30;1.00;;;;;;5073609;28;20852;-75
2020/12/21 04:37:24;;;;;;;28.33;9.70;;;8.50;1.00;;;;;;5090311;28;20447;-75
2020/12/21 04:39:53;;;;;;;32.27;9.50;;;8.40;1.00;;;;;;5096548;28;20416;-75
2020/12/21 04:42:23;;;;;;;35.17;11.63;;;8.40;1.00;;;;;;5094963;28;20204;-75
2020/12/21 04:44:59;;;;;;;33.47;11.90;;;8.40;1.00;;;;;;5093767;28;20393;-74
2020/12/21 04:47:26;;;;;;;36.20;10.90;;;;;;;;;;5083533;28;20444;-74
2020/12/21 04:49:56;;;;;;;32.63;10.43;;;8.40;1.00;;;;;;5072515;28;20401;-75
2020/12/21 04:52:30;;;;;;;33.70;10.77;;;8.50;1.00;;;;;;5086837;28;20419;-75
2020/12/21 04:55:05;;;;;;;29.03;10.27;;;8.50;1.00;;;;;;5093434;28;20392;-75
2020/12/21 04:57:30;;;;;;;38.77;10.87;;;8.50;1.00;;;;;;5092718;28;20419;-75
2020/12/21 04:59:59;;;;;;;36.00;10.77;;;8.50;1.00;;;;;;5093389;28;20393;-75
2020/12/21 05:02:53;;;;;;;34.03;9.60;;;8.50;1.00;;;;;;5084412;28;20179;-75
2020/12/21 05:05:29;;;;;;;34.37;11.10;;;8.50;1.00;;;;;;5073478;28;20393;-75
2020/12/21 05:07:55;;;;;;;35.13;9.77;;;8.50;1.00;;;;;;5092201;28;20801;-75
2020/12/21 05:10:23;;;;;;;28.73;9.80;;;8.50;1.00;;;;;;5079453;28;20413;-75
2020/12/21 05:13:00;;;;;;;29.87;10.60;;;8.50;1.00;;;;;;5090661;28;20219;-75
2020/12/21 05:15:48;;;;;;;30.63;10.63;;;8.90;1.00;;;;;;5093518;28;20498;-75
2020/12/21 05:18:14;;;;;;;27.60;9.70;;;8.50;1.00;;;;;;5093312;28;20419;-76
2020/12/21 05:20:58;;;;;;;30.17;10.23;;;8.40;1.00;;;;;;5092546;28;20420;-77
2020/12/21 05:23:55;;;;;;;28.50;9.83;;;8.40;1.00;;;;;;5093614;28;20209;-76
2020/12/21 05:27:04;;;;;;;25.53;8.40;;;8.40;1.00;;;;;;5092605;28;20570;-76
2020/12/21 05:29:41;;;;;;;28.90;9.90;;;8.30;1.00;;;;;;5096179;28;20466;-76
2020/12/21 05:32:23;;;;;;;26.23;9.40;;;8.30;1.00;;;;;;5080140;28;20757;-76
2020/12/21 05:34:50;;;;;;;18.10;8.20;;;8.30;1.00;;;;;;5076677;28;20413;-76
2020/12/21 05:37:41;;;;;;;28.83;9.77;;;8.20;1.00;;;;;;5081719;28;20772;-76
2020/12/21 05:40:17;;;;;;;30.00;9.63;;;8.10;1.00;;;;;;5096831;28;20392;-76
2020/12/21 05:43:28;;;;;;;36.20;10.27;;;8.10;1.00;;;;;;5080619;28;20412;-77
2020/12/21 05:46:13;;;;;;;27.43;7.80;;;8.00;1.00;;;;;;5076597;28;20421;-76
2020/12/21 05:48:44;;;;;;;26.70;10.60;;;8.00;1.00;;;;;;5076448;28;20425;-74
2020/12/21 05:51:19;;;;;;;27.47;10.00;;;8.00;1.00;;;;;;5079574;28;20451;-75
2020/12/21 05:53:55;;;;;;;26.23;10.50;;;8.00;1.00;;;;;;5096521;28;20863;-75
2020/12/21 05:56:22;;;;;;;24.50;9.77;;;7.90;1.00;;;;;;5093153;28;20515;-74
2020/12/21 05:59:05;;;;;;;26.13;10.50;;;7.90;1.00;;;;;;5096028;28;20416;-75
2020/12/21 06:01:30;;;;;;;34.90;10.00;;;7.90;1.00;;;;;;5084037;28;20413;-75
2020/12/21 06:04:37;;;;;;;31.20;11.17;;;7.90;1.00;;;;;;5076392;28;20896;-76
2020/12/21 06:07:03;;;;;;;26.93;9.77;;;7.80;1.00;;;;;;5075426;28;20598;-76
2020/12/21 06:09:30;;;;;;;24.23;9.00;;;7.80;1.00;;;;;;5076029;28;20390;-76
2020/12/21 06:11:56;;;;;;;29.43;10.37;;;7.80;1.00;;;;;;5086413;28;20410;-77
2020/12/21 06:14:35;;;;;;;21.97;9.40;;;7.90;1.00;;;;;;5084261;28;20444;-76
2020/12/21 06:17:09;;;;;;;25.73;9.70;;;7.80;1.00;;;;;;5075760;28;20473;-76
2020/12/21 06:19:35;;;;;;;26.07;10.07;;;7.80;1.00;;;;;;5075711;28;20862;-77
2020/12/21 06:22:05;;;;;;;24.80;9.47;;;7.80;1.00;;;;;;5082478;28;20439;-76
2020/12/21 06:24:37;;;;;;;27.90;10.10;;;7.80;1.00;;;;;;5091579;28;20167;-76
2020/12/21 06:27:46;;;;;;;27.63;9.17;;;7.80;1.00;;;;;;5088181;28;20745;-76
2020/12/21 06:30:14;;;;;;;27.87;9.80;;;7.90;1.00;;;;;;5076452;28;20424;-76
2020/12/21 06:32:47;;;;;;;25.93;11.03;;;7.90;1.00;;;;;;5080539;28;20427;-76
2020/12/21 06:35:20;;;;;;;29.40;10.07;;;7.90;1.00;;;;;;5075622;28;20453;-76
2020/12/21 06:38:02;;;;;;;37.27;10.57;;;7.90;1.00;;;;;;5076843;28;20425;-77
2020/12/21 06:40:32;;;;;;;32.53;10.53;;;7.90;1.00;;;;;;5075012;28;20399;-76
2020/12/21 06:43:17;;;;;;;38.73;10.10;;;7.90;1.00;;;;;;5082489;28;20426;-76
2020/12/21 06:45:47;;;;;;;30.50;10.20;;;7.90;1.00;;;;;;5084150;28;20548;-76
2020/12/21 06:48:34;;;;;;;31.80;10.07;;;7.90;1.00;;;;;;5095236;28;20875;-76
2020/12/21 06:51:19;;;;;;;32.23;11.30;;;8.00;1.00;;;;;;5076107;28;20479;-74
2020/12/21 06:54:18;;;;;;;35.60;10.67;;;7.90;1.00;;;;;;5078328;28;20516;-74
2020/12/21 06:56:51;;;;;;;36.90;10.27;;;7.90;1.00;;;;;;5023809;28;20553;-74
2020/12/21 06:59:19;;;;;;;24.67;9.40;;;7.90;1.00;;;;;;5039783;28;20488;-74
2020/12/21 07:01:49;;;;;;;27.43;9.87;;;8.00;1.00;;;;;;5022361;28;20456;-75
2020/12/21 07:04:21;;;;;;;33.83;11.40;;;8.10;1.00;;;;;;5033074;28;20411;-75
2020/12/21 07:06:48;;;;;;;23.57;9.70;;;8.00;1.00;;;;;;5032361;28;20418;-74
2020/12/21 07:09:23;;;;;;;28.13;10.00;;;8.00;1.00;;;;;;5032662;28;20403;-75
2020/12/21 07:12:10;;;;;;;23.20;9.60;;;8.00;1.00;;;;;;5032083;28;20418;-75
2020/12/21 07:14:41;;;;;;;26.20;9.83;;;8.00;1.00;;;;;;5017244;28;21016;-75
2020/12/21 07:17:23;;;;;;;29.00;9.40;;;8.00;1.00;;;;;;5026932;28;20462;-75
2020/12/21 07:20:28;;;;;;;25.97;10.20;;;8.00;1.00;;;;;;5031458;28;20434;-76
2020/12/21 07:22:55;;;;;;;33.30;10.43;;;8.00;1.00;;;;;;5026391;28;20559;-76
2020/12/21 07:25:23;;;;;;;31.03;10.70;;;8.00;1.00;;;;;;5032818;28;20458;-77
2020/12/21 07:27:49;;;;;;;30.07;10.33;;;8.10;1.00;;;;;;5021465;28;20502;-76
2020/12/21 07:30:15;;;;;;;28.73;10.80;;;8.00;1.00;;;;;;5034943;28;20438;-76
2020/12/21 07:32:53;;;;;;;155.33;63.20;;;8.10;1.00;;;;;;5068403;28;20428;-77
2020/12/21 07:35:18;;;;;;;36.90;14.70;;;8.10;1.00;;;;;;5094697;28;20436;-76
2020/12/21 07:37:47;;;;;;;33.70;10.93;;;8.10;1.00;;;;;;5094387;28;20484;-76
2020/12/21 07:40:23;;;;;;;35.07;10.43;;;8.10;1.00;;;;;;5094789;28;20566;-76
2020/12/21 07:43:02;;;;;;;18.50;6.67;;;8.10;1.00;;;;;;5093774;28;20783;-78
2020/12/21 07:45:29;;;;;;;19.63;8.30;;;9.00;1.00;;;;;;5078298;28;20775;-78
2020/12/21 07:47:55;;;;;;;41.73;12.50;;;9.00;1.00;;;;;;5087427;28;20465;-77
2020/12/21 07:50:20;;;;;;;55.00;15.83;;;9.50;1.00;;;;;;5074423;28;20417;-75
2020/12/21 07:52:46;;;;;;;47.83;15.57;;;10.30;1.00;;;;;;5072692;28;20166;-76
2020/12/21 07:55:12;;;;;;;33.00;11.27;;;10.40;1.00;;;;;;5073876;28;20252;-76
2020/12/21 07:57:37;;;;;;;18.10;8.63;;;10.60;1.00;;;;;;5072645;28;20198;-75
2020/12/21 08:00:17;;;;;;;21.87;9.77;;;10.70;1.00;;;;;;5073287;28;20175;-75
2020/12/21 08:02:47;;;;;;;26.67;10.53;;;10.80;1.00;;;;;;5073858;28;20187;-75
2020/12/21 08:05:19;;;;;;;22.87;9.60;;;10.60;1.00;;;;;;5073983;28;20400;-76
2020/12/21 08:07:45;;;;;;;24.63;10.33;;;10.60;1.00;;;;;;5073225;28;20425;-76
2020/12/21 08:10:29;;;;;;;23.73;10.67;;;10.50;1.00;;;;;;5072755;28;20413;-76
2020/12/21 08:12:54;;;;;;;23.00;8.70;;;10.60;1.00;;;;;;5074314;28;20224;-77
2020/12/21 08:15:20;;;;;;;40.37;10.10;;;10.20;1.00;;;;;;5072574;28;20543;-76
2020/12/21 08:17:47;;;;;;;28.70;10.97;;;10.30;1.00;;;;;;5072972;28;20150;-77
2020/12/21 08:20:12;;;;;;;27.17;11.17;;;11.60;1.00;;;;;;5082702;28;20433;-76
2020/12/21 08:22:42;;;;;;;31.27;10.73;;;10.30;1.00;;;;;;5075477;28;20440;-76
2020/12/21 08:25:13;;;;;;;20.13;9.03;;;10.20;1.00;;;;;;5089452;28;20436;-77
2020/12/21 08:27:42;;;;;;;26.70;10.60;;;10.00;1.00;;;;;;5101563;28;20755;-76
2020/12/21 08:30:09;;;;;;;24.17;10.30;;;9.90;1.00;;;;;;5081414;28;20557;-77
2020/12/21 08:32:35;;;;;;;31.53;11.43;;;9.80;1.00;;;;;;5076007;28;20773;-77
2020/12/21 08:35:02;;;;;;;24.63;10.33;;;9.80;1.00;;;;;;5079040;28;20895;-76
2020/12/21 08:37:28;;;;;;;27.67;9.53;;;9.60;1.00;;;;;;5092728;28;20473;-76
2020/12/21 08:39:54;;;;;;;24.10;10.00;;;9.70;1.00;;;;;;5092716;28;20909;-76
2020/12/21 08:42:20;;;;;;;27.13;10.40;;;9.60;1.00;;;;;;5090561;28;20466;-76
2020/12/21 08:44:49;;;;;;;31.90;11.40;;;9.50;1.00;;;;;;5083661;28;20409;-76
2020/12/21 08:47:15;;;;;;;33.10;10.50;;;9.50;1.00;;;;;;5084026;28;20173;-76
2020/12/21 08:49:41;;;;;;;25.10;9.70;;;9.50;1.00;;;;;;5084649;28;20842;-75
2020/12/21 08:52:06;;;;;;;25.87;10.40;;;9.40;1.00;;;;;;5080755;28;20173;-77
2020/12/21 08:54:32;;;;;;;23.80;9.30;;;9.30;1.00;;;;;;5090653;28;20182;-76
2020/12/21 08:56:58;;;;;;;29.53;11.20;;;10.70;1.00;;;;;;5085946;28;20206;-77
2020/12/21 08:59:24;;;;;;;26.93;10.00;;;9.60;1.00;;;;;;5094654;28;20254;-76
2020/12/21 09:01:50;;;;;;;28.90;10.50;;;;;;;;;;5085738;28;20508;-76
2020/12/21 09:04:16;;;;;;;27.40;11.67;;;9.30;1.00;;;;;;5076424;28;20432;-76
2020/12/21 09:06:41;;;;;;;30.83;11.50;;;9.30;1.00;;;;;;5090404;28;20836;-76
2020/12/21 09:09:08;;;;;;;36.50;11.87;;;9.30;1.00;;;;;;5086652;28;20185;-77
2020/12/21 09:11:35;;;;;;;23.47;10.10;;;10.90;1.00;;;;;;5087166;28;20189;-76
2020/12/21 09:14:01;;;;;;;32.43;10.93;;;10.40;1.00;;;;;;5075411;28;21080;-77
2020/12/21 09:16:30;;;;;;;28.80;11.10;;;9.40;1.00;;;;;;5076742;28;20456;-76
2020/12/21 09:18:57;;;;;;;26.00;10.90;;;9.40;1.00;;;;;;5079220;28;20775;-76
2020/12/21 09:21:28;;;;;;;25.10;10.40;;;9.40;1.00;;;;;;5090978;28;20795;-76
2020/12/21 09:24:02;;;;;;;29.27;11.83;;;9.30;1.00;;;;;;5085136;28;20453;-76
2020/12/21 09:26:29;;;;;;;28.83;11.23;;;9.40;1.00;;;;;;5092930;28;20416;-76
2020/12/21 09:28:55;;;;;;;34.87;11.87;;;9.40;1.00;;;;;;5091044;28;20940;-76
2020/12/21 09:31:22;;;;;;;28.03;11.03;;;9.30;1.00;;;;;;5076951;28;20448;-76
2020/12/21 09:33:50;;;;;;;21.50;10.67;;;9.40;1.00;;;;;;5095079;28;20419;-76
2020/12/21 09:36:16;;;;;;;25.57;10.70;;;9.50;1.00;;;;;;5102130;28;20603;-76
2020/12/21 09:38:43;;;;;;;25.83;10.93;;;9.50;1.00;;;;;;5092797;28;20420;-76
2020/12/21 09:41:19;;;;;;;23.03;9.07;;;9.50;1.00;;;;;;5086653;28;20420;-76
2020/12/21 09:43:53;;;;;;;23.27;9.97;;;9.50;1.00;;;;;;5076455;28;20385;-76
2020/12/21 09:46:49;;;;;;;29.20;10.43;;;9.60;1.00;;;;;;5076513;28;20389;-76
2020/12/21 09:49:17;;;;;;;21.37;8.97;;;9.60;1.00;;;;;;5076012;28;20405;-76
2020/12/21 09:51:53;;;;;;;22.07;9.40;;;9.60;1.00;;;;;;5076672;28;20389;-76
2020/12/21 09:54:30;;;;;;;19.17;9.60;;;9.70;1.00;;;;;;5094851;28;20415;-76
2020/12/21 09:57:05;;;;;;;20.70;8.97;;;9.70;1.00;;;;;;5093988;28;20462;-76
2020/12/21 09:59:47;;;;;;;21.33;9.13;;;9.70;1.00;;;;;;5109670;28;20415;-76
2020/12/21 10:02:17;;;;;;;20.00;8.73;;;9.70;1.00;;;;;;5116542;28;20796;-76
2020/12/21 10:04:53;;;;;;;24.87;7.90;;;9.80;1.00;;;;;;5112026;28;20443;-76
2020/12/21 10:07:23;;;;;;;24.50;8.60;;;9.80;1.00;;;;;;5090286;28;20432;-74
2020/12/21 10:09:53;;;;;;;18.60;8.10;;;9.80;1.00;;;;;;5084020;28;20956;-75
2020/12/21 10:12:18;;;;;;;24.30;8.73;;;9.80;1.00;;;;;;5075446;28;20951;-75
2020/12/21 10:14:45;;;;;;;17.67;8.97;;;9.90;1.00;;;;;;5076178;28;20451;-75
2020/12/21 10:17:11;;;;;;;19.77;8.90;;;9.90;1.00;;;;;;5075087;28;20578;-76
2020/12/21 10:19:41;;;;;;;24.10;8.10;;;9.90;1.00;;;;;;5083510;28;20412;-76
2020/12/21 10:22:35;;;;;;;20.50;9.70;;;10.00;1.00;;;;;;5091210;28;20435;-74
2020/12/21 10:25:00;;;;;;;15.80;8.37;;;10.00;1.00;;;;;;5080229;28;20411;-74
2020/12/21 10:27:52;;;;;;;14.10;7.97;;;9.90;1.00;;;;;;5095239;28;20408;-74
2020/12/21 10:30:18;;;;;;;15.50;7.70;;;10.00;1.00;;;;;;5102163;28;20221;-74
2020/12/21 10:32:54;;;;;;;18.30;7.73;;;11.00;1.00;;;;;;5115188;28;20473;-75
2020/12/21 10:35:20;;;;;;;16.07;6.40;;;10.00;1.00;;;;;;5097993;28;20194;-75
2020/12/21 10:37:45;;;;;;;14.63;6.73;;;10.00;1.00;;;;;;5090782;28;20424;-74
2020/12/21 10:40:17;;;;;;;16.57;6.63;;;9.90;1.00;;;;;;5094214;28;20640;-77
2020/12/21 10:42:42;;;;;;;14.70;6.70;;;9.90;1.00;;;;;;5095088;28;20640;-75
2020/12/21 10:45:17;;;;;;;10.17;6.10;;;10.00;1.00;;;;;;5095535;28;20403;-74
2020/12/21 10:47:42;;;;;;;9.20;6.10;;;9.90;1.00;;;;;;5089283;28;20205;-74
2020/12/21 10:50:11;;;;;;;12.60;6.40;;;10.40;1.00;;;;;;5095236;28;20424;-75
2020/12/21 10:52:41;;;;;;;10.03;5.50;;;10.00;1.00;;;;;;5095425;28;20181;-76
2020/12/21 10:55:17;;;;;;;11.23;5.90;;;10.10;1.00;;;;;;5089648;28;20958;-76
2020/12/21 10:57:42;;;;;;;16.23;4.97;;;10.20;1.00;;;;;;5075098;28;20385;-76
2020/12/21 11:00:52;;;;;;;9.43;5.57;;;10.20;1.00;;;;;;5074661;28;20746;-76
2020/12/21 11:03:52;;;;;;;11.50;5.23;;;10.20;1.00;;;;;;5078166;28;20166;-76
2020/12/21 11:06:22;;;;;;;7.57;4.90;;;10.30;1.00;;;;;;5075197;28;20543;-76
2020/12/21 11:09:23;;;;;;;7.20;4.20;;;10.40;1.00;;;;;;5074360;28;20488;-76
2020/12/21 11:12:05;;;;;;;9.20;4.97;;;10.50;1.00;;;;;;5074754;28;20379;-76
2020/12/21 11:15:17;;;;;;;14.03;4.87;;;10.60;1.00;;;;;;5085571;28;20500;-76
2020/12/21 11:17:43;;;;;;;7.20;4.17;;;10.70;1.00;;;;;;5085727;28;20421;-76
2020/12/21 11:20:11;;;;;;;12.07;4.57;;;10.70;1.00;;;;;;5080503;28;20421;-76
2020/12/21 11:22:47;;;;;;;6.87;4.40;;;10.70;1.00;;;;;;5085076;28;20536;-75
2020/12/21 11:25:13;;;;;;;9.67;4.67;;;10.80;1.00;;;;;;5115298;28;20449;-75
2020/12/21 11:27:47;;;;;;;9.70;4.77;;;10.90;1.00;;;;;;5114838;28;20396;-75
2020/12/21 11:30:17;;;;;;;9.83;4.43;;;11.00;1.00;;;;;;5114900;28;20894;-74
2020/12/21 11:33:05;;;;;;;10.13;4.63;;;11.00;1.00;;;;;;5114773;28;20746;-75
2020/12/21 11:35:30;;;;;;;10.30;4.57;;;11.00;1.00;;;;;;5086234;28;20457;-75
2020/12/21 11:37:56;;;;;;;8.67;4.83;;;11.00;1.00;;;;;;5074270;28;20748;-76
2020/12/21 11:40:35;;;;;;;10.03;4.60;;;10.90;1.00;;;;;;5074041;28;20238;-76
2020/12/21 11:43:12;;;;;;;18.63;4.83;;;11.00;1.00;;;;;;5074323;28;20159;-76
2020/12/21 11:45:37;;;;;;;9.80;4.63;;;11.00;1.00;;;;;;5079437;28;20442;-76
2020/12/21 11:48:46;;;;;;;9.10;4.70;;;11.00;1.00;;;;;;5094248;28;20887;-76
2020/12/21 11:51:19;;;;;;;7.27;4.23;;;11.00;1.00;;;;;;5094304;28;20157;-76
2020/12/21 11:53:53;;;;;;;6.30;4.40;;;10.90;1.00;;;;;;5094046;28;20483;-74
2020/12/21 11:56:22;;;;;;;8.20;4.30;;;10.90;1.00;;;;;;5078500;28;20809;-75
2020/12/21 11:58:48;;;;;;;11.43;4.53;;;10.90;1.00;;;;;;5073896;28;20385;-75
2020/12/21 12:01:18;;;;;;;10.33;4.63;;;11.10;1.00;;;;;;5073994;28;20389;-75
2020/12/21 12:03:53;;;;;;;7.67;4.70;;;11.20;1.00;;;;;;5073785;28;20393;-75
2020/12/21 12:06:30;;;;;;;6.77;4.20;;;11.50;1.00;;;;;;5073780;28;20396;-74
2020/12/21 12:09:11;;;;;;;8.50;5.00;;;11.50;1.00;;;;;;5073515;28;20394;-76
2020/12/21 12:11:41;;;;;;;9.10;4.70;;;11.30;1.00;;;;;;5074039;28;20929;-76
2020/12/21 12:14:07;;;;;;;8.63;4.73;;;11.40;1.00;;;;;;5073519;28;20409;-76
2020/12/21 12:16:55;;;;;;;8.83;4.27;;;11.40;1.00;;;;;;5073889;28;20445;-76
2020/12/21 12:19:59;;;;;;;8.27;4.83;;;11.30;1.00;;;;;;5090737;28;20182;-76
2020/12/21 12:22:24;;;;;;;12.10;5.53;;;11.30;1.00;;;;;;5085726;28;20424;-74
2020/12/21 12:24:50;;;;;;;8.70;4.80;;;11.30;1.00;;;;;;5073691;28;20470;-74
2020/12/21 12:27:16;;;;;;;6.40;4.00;;;11.40;1.00;;;;;;5072688;28;20397;-75
2020/12/21 12:29:41;;;;;;;8.37;4.43;;;11.50;1.00;;;;;;5073914;28;20159;-74
2020/12/21 12:32:07;;;;;;;9.80;4.90;;;11.50;1.00;;;;;;5076794;28;20170;-75
2020/12/21 12:34:33;;;;;;;7.77;4.60;;;11.60;1.00;;;;;;5077934;28;20187;-75
2020/12/21 12:36:58;;;;;;;16.13;4.30;;;11.70;1.00;;;;;;5086175;28;20194;-74
2020/12/21 12:39:24;;;;;;;8.17;4.80;;;11.80;1.00;;;;;;5079784;28;20198;-73
2020/12/21 12:41:50;;;;;;;7.80;3.97;;;11.80;1.00;;;;;;5081528;28;20183;-75
2020/12/21 12:44:16;;;;;;;5.73;3.77;;;11.90;1.00;;;;;;5096741;28;20178;-74
2020/12/21 12:46:41;;;;;;;9.03;3.40;;;11.90;1.00;;;;;;5098110;28;20936;-75
2020/12/21 12:49:08;;;;;;;4.40;3.50;;;11.70;1.00;;;;;;5083258;28;20650;-75
2020/12/21 12:51:36;;;;;;;7.70;3.97;;;11.80;1.00;;;;;;5092959;28;20167;-75
2020/12/21 12:54:02;;;;;;;4.00;3.23;;;11.80;1.00;;;;;;5079321;28;20425;-75
2020/12/21 12:56:28;;;;;;;7.77;3.03;;;12.00;1.00;;;;;;5079285;28;20993;-75
2020/12/21 12:58:54;;;;;;;3.47;2.97;;;11.80;1.00;;;;;;5076023;28;20393;-74
2020/12/21 13:01:21;;;;;;;4.27;3.10;;;11.80;1.00;;;;;;5085258;28;20435;-75
2020/12/21 13:03:46;;;;;;;4.40;2.87;;;11.70;1.00;;;;;;5100911;28;20209;-74
2020/12/21 13:07:05;;;;;;;5.47;2.83;;;11.70;1.00;;;;;;5097402;28;20814;-76
2020/12/21 13:09:30;;;;;;;29.73;3.30;;;11.60;1.00;;;;;;5097308;28;20579;-75
2020/12/21 13:11:59;;;;;;;4.80;3.17;;;11.80;1.00;;;;;;5097291;28;20469;-75
2020/12/21 13:14:24;;;;;;;3.97;2.90;;;11.70;1.00;;;;;;5085845;28;20166;-75
2020/12/21 13:16:50;;;;;;;3.80;3.00;;;11.70;1.00;;;;;;5083385;28;20459;-75
2020/12/21 13:19:16;;;;;;;5.37;3.30;;;11.70;1.00;;;;;;5075766;28;20656;-77
2020/12/21 13:21:59;;;;;;;4.57;2.80;;;11.70;1.00;;;;;;5078170;28;20241;-77
2020/12/21 13:24:25;;;;;;;5.87;3.73;;;11.70;1.00;;;;;;5097490;28;20404;-76
2020/12/21 13:26:51;;;;;;;10.37;2.80;;;11.70;1.00;;;;;;5090390;28;20425;-76
2020/12/21 13:29:19;;;;;;;8.40;2.77;;;11.80;1.00;;;;;;5092271;28;20572;-76
2020/12/21 13:31:46;;;;;;;5.50;3.00;;;11.80;1.00;;;;;;5080372;28;20432;-76